sensor_id;sensor_type;location;lat;lon;timestamp;temperature;humidity
17728;DHT22;8984;49.268;12.302;2024-02-23T00:01:01;11.40;99.90
17728;DHT22;8984;49.268;12.302;2024-02-23T00:03:38;11.30;99.90
17728;DHT22;8984;49.268;12.302;2024-02-23T00:06:12;11.20;99.90
17728;DHT22;8984;49.268;12.302;2024-02-23T00:08:41;11.10;99.90
17728;DHT22;8984;49.268;12.302;2024-02-23T00:11:13;11.10;99.90
17728;DHT22;8984;49.268;12.302;2024-02-23T00:13:49;11.00;99.90
17728;DHT22;8984;49.268;12.302;2024-02-23T00:16:37;10.90;99.90
17728;DHT22;8984;49.268;12.302;2024-02-23T00:19:20;11.00;99.90
17728;DHT22;8984;49.268;12.302;2024-02-23T00:21:52;11.00;99.90
17728;DHT22;8984;49.268;12.302;2024-02-23T00:24:21;11.00;99.90
17728;DHT22;8984;49.268;12.302;2024-02-23T00:26:53;11.00;99.90
17728;DHT22;8984;49.268;12.302;2024-02-23T00:29:24;11.00;99.90
17728;DHT22;8984;49.268;12.302;2024-02-23T00:32:10;10.90;99.90
17728;DHT22;8984;49.268;12.302;2024-02-23T00:35:05;11.00;99.90
17728;DHT22;8984;49.268;12.302;2024-02-23T00:37:39;10.90;99.90
17728;DHT22;8984;49.268;12.302;2024-02-23T00:40:09;11.00;99.90
17728;DHT22;8984;49.268;12.302;2024-02-23T00:42:38;11.00;99.90
17728;DHT22;8984;49.268;12.302;2024-02-23T00:45:21;11.00;99.90
17728;DHT22;8984;49.268;12.302;2024-02-23T00:48:03;11.10;99.90
17728;DHT22;8984;49.268;12.302;2024-02-23T00:50:36;11.00;99.90
17728;DHT22;8984;49.268;12.302;2024-02-23T00:53:08;11.00;99.90
17728;DHT22;8984;49.268;12.302;2024-02-23T00:55:36;11.10;99.90
17728;DHT22;8984;49.268;12.302;2024-02-23T00:58:25;11.10;99.90
17728;DHT22;8984;49.268;12.302;2024-02-23T01:00:55;11.10;99.90
17728;DHT22;8984;49.268;12.302;2024-02-23T01:03:23;11.20;99.90
17728;DHT22;8984;49.268;12.302;2024-02-23T01:05:59;11.00;99.90
17728;DHT22;8984;49.268;12.302;2024-02-23T01:08:46;11.00;99.90
17728;DHT22;8984;49.268;12.302;2024-02-23T01:11:21;11.10;99.90
17728;DHT22;8984;49.268;12.302;2024-02-23T01:14:18;11.10;99.90
17728;DHT22;8984;49.268;12.302;2024-02-23T01:16:55;11.10;99.90
17728;DHT22;8984;49.268;12.302;2024-02-23T01:19:37;11.20;99.90
17728;DHT22;8984;49.268;12.302;2024-02-23T01:22:23;11.10;99.90
17728;DHT22;8984;49.268;12.302;2024-02-23T01:24:54;11.00;99.90
17728;DHT22;8984;49.268;12.302;2024-02-23T01:27:22;11.10;99.90
17728;DHT22;8984;49.268;12.302;2024-02-23T01:29:56;11.10;99.90
17728;DHT22;8984;49.268;12.302;2024-02-23T01:32:30;11.10;99.90
17728;DHT22;8984;49.268;12.302;2024-02-23T01:34:59;11.00;99.90
17728;DHT22;8984;49.268;12.302;2024-02-23T01:37:34;10.80;99.90
17728;DHT22;8984;49.268;12.302;2024-02-23T01:40:21;10.60;99.90
17728;DHT22;8984;49.268;12.302;2024-02-23T01:43:04;10.40;99.90
17728;DHT22;8984;49.268;12.302;2024-02-23T01:45:46;10.30;99.90
17728;DHT22;8984;49.268;12.302;2024-02-23T01:48:26;10.20;99.90
17728;DHT22;8984;49.268;12.302;2024-02-23T01:50:56;10.20;99.90
17728;DHT22;8984;49.268;12.302;2024-02-23T01:53:41;10.10;99.90
17728;DHT22;8984;49.268;12.302;2024-02-23T01:56:21;9.90;99.90
17728;DHT22;8984;49.268;12.302;2024-02-23T01:58:53;9.80;99.90
17728;DHT22;8984;49.268;12.302;2024-02-23T02:01:40;9.70;99.90
17728;DHT22;8984;49.268;12.302;2024-02-23T02:07:00;9.60;99.90
17728;DHT22;8984;49.268;12.302;2024-02-23T02:09:47;9.50;99.90
17728;DHT22;8984;49.268;12.302;2024-02-23T02:12:52;9.50;99.90
17728;DHT22;8984;49.268;12.302;2024-02-23T02:15:20;9.50;99.90
17728;DHT22;8984;49.268;12.302;2024-02-23T02:17:55;9.50;99.90
17728;DHT22;8984;49.268;12.302;2024-02-23T02:20:28;9.40;99.90
17728;DHT22;8984;49.268;12.302;2024-02-23T02:23:20;9.40;99.90
17728;DHT22;8984;49.268;12.302;2024-02-23T02:26:09;9.30;99.90
17728;DHT22;8984;49.268;12.302;2024-02-23T02:28:57;9.40;99.90
17728;DHT22;8984;49.268;12.302;2024-02-23T02:31:44;9.40;99.90
17728;DHT22;8984;49.268;12.302;2024-02-23T02:34:11;9.30;99.90
17728;DHT22;8984;49.268;12.302;2024-02-23T02:36:53;9.20;99.90
17728;DHT22;8984;49.268;12.302;2024-02-23T02:39:20;9.20;99.90
17728;DHT22;8984;49.268;12.302;2024-02-23T02:41:58;9.20;99.90
17728;DHT22;8984;49.268;12.302;2024-02-23T02:44:36;9.20;99.90
17728;DHT22;8984;49.268;12.302;2024-02-23T02:47:07;9.30;99.90
17728;DHT22;8984;49.268;12.302;2024-02-23T02:49:39;9.00;99.90
17728;DHT22;8984;49.268;12.302;2024-02-23T02:52:26;9.00;99.90
17728;DHT22;8984;49.268;12.302;2024-02-23T02:54:55;8.90;99.90
17728;DHT22;8984;49.268;12.302;2024-02-23T02:57:25;8.60;99.90
17728;DHT22;8984;49.268;12.302;2024-02-23T03:00:18;8.70;99.90
17728;DHT22;8984;49.268;12.302;2024-02-23T03:02:46;8.80;99.90
17728;DHT22;8984;49.268;12.302;2024-02-23T03:05:29;8.80;99.90
17728;DHT22;8984;49.268;12.302;2024-02-23T03:07:57;8.80;99.90
17728;DHT22;8984;49.268;12.302;2024-02-23T03:10:25;8.80;99.90
17728;DHT22;8984;49.268;12.302;2024-02-23T03:12:53;8.80;99.90
17728;DHT22;8984;49.268;12.302;2024-02-23T03:15:23;8.80;99.90
17728;DHT22;8984;49.268;12.302;2024-02-23T03:17:55;8.80;99.90
17728;DHT22;8984;49.268;12.302;2024-02-23T03:20:39;8.80;99.90
17728;DHT22;8984;49.268;12.302;2024-02-23T03:23:09;8.70;99.90
17728;DHT22;8984;49.268;12.302;2024-02-23T03:25:47;8.70;99.90
17728;DHT22;8984;49.268;12.302;2024-02-23T03:28:24;8.70;99.90
17728;DHT22;8984;49.268;12.302;2024-02-23T03:30:55;8.70;99.90
17728;DHT22;8984;49.268;12.302;2024-02-23T03:33:24;8.70;99.90
17728;DHT22;8984;49.268;12.302;2024-02-23T03:36:06;8.70;99.90
17728;DHT22;8984;49.268;12.302;2024-02-23T03:39:09;8.60;99.90
17728;DHT22;8984;49.268;12.302;2024-02-23T03:41:58;8.60;99.90
17728;DHT22;8984;49.268;12.302;2024-02-23T03:47:20;8.50;99.90
17728;DHT22;8984;49.268;12.302;2024-02-23T03:49:52;8.50;99.90
17728;DHT22;8984;49.268;12.302;2024-02-23T03:52:23;8.60;99.90
17728;DHT22;8984;49.268;12.302;2024-02-23T03:54:51;8.60;99.90
17728;DHT22;8984;49.268;12.302;2024-02-23T03:57:37;8.60;99.90
17728;DHT22;8984;49.268;12.302;2024-02-23T04:00:14;8.70;99.90
17728;DHT22;8984;49.268;12.302;2024-02-23T04:02:48;8.60;99.90
17728;DHT22;8984;49.268;12.302;2024-02-23T04:05:25;8.50;99.90
17728;DHT22;8984;49.268;12.302;2024-02-23T04:08:06;8.50;99.90
17728;DHT22;8984;49.268;12.302;2024-02-23T04:10:53;8.50;99.90
17728;DHT22;8984;49.268;12.302;2024-02-23T04:13:21;8.50;99.90
17728;DHT22;8984;49.268;12.302;2024-02-23T04:19:05;8.40;99.90
17728;DHT22;8984;49.268;12.302;2024-02-23T04:21:36;8.50;99.90
17728;DHT22;8984;49.268;12.302;2024-02-23T04:24:21;8.50;99.90
17728;DHT22;8984;49.268;12.302;2024-02-23T04:27:08;8.40;99.90
17728;DHT22;8984;49.268;12.302;2024-02-23T04:30:06;8.40;99.90
17728;DHT22;8984;49.268;12.302;2024-02-23T04:32:39;8.40;99.90
17728;DHT22;8984;49.268;12.302;2024-02-23T04:35:27;8.40;99.90
17728;DHT22;8984;49.268;12.302;2024-02-23T04:37:54;8.40;99.90
17728;DHT22;8984;49.268;12.302;2024-02-23T04:40:26;8.40;99.90
17728;DHT22;8984;49.268;12.302;2024-02-23T04:43:03;8.40;99.90
17728;DHT22;8984;49.268;12.302;2024-02-23T04:45:50;8.40;99.90
17728;DHT22;8984;49.268;12.302;2024-02-23T04:48:29;8.40;99.90
17728;DHT22;8984;49.268;12.302;2024-02-23T04:51:09;8.40;99.90
17728;DHT22;8984;49.268;12.302;2024-02-23T04:53:44;8.40;99.90
17728;DHT22;8984;49.268;12.302;2024-02-23T04:56:12;8.20;99.90
17728;DHT22;8984;49.268;12.302;2024-02-23T04:58:43;8.30;99.90
17728;DHT22;8984;49.268;12.302;2024-02-23T05:01:11;8.30;99.90
17728;DHT22;8984;49.268;12.302;2024-02-23T05:03:39;8.40;99.90
17728;DHT22;8984;49.268;12.302;2024-02-23T05:06:14;8.30;99.90
17728;DHT22;8984;49.268;12.302;2024-02-23T05:09:02;8.20;99.90
17728;DHT22;8984;49.268;12.302;2024-02-23T05:11:32;8.30;99.90
17728;DHT22;8984;49.268;12.302;2024-02-23T05:14:21;8.30;99.90
17728;DHT22;8984;49.268;12.302;2024-02-23T05:17:07;8.20;99.90
17728;DHT22;8984;49.268;12.302;2024-02-23T05:19:35;8.20;99.90
17728;DHT22;8984;49.268;12.302;2024-02-23T05:22:11;8.10;99.90
17728;DHT22;8984;49.268;12.302;2024-02-23T05:25:01;8.10;99.90
17728;DHT22;8984;49.268;12.302;2024-02-23T05:27:38;8.10;99.90
17728;DHT22;8984;49.268;12.302;2024-02-23T05:30:13;8.20;99.90
17728;DHT22;8984;49.268;12.302;2024-02-23T05:32:47;8.00;99.90
17728;DHT22;8984;49.268;12.302;2024-02-23T05:35:29;8.00;99.90
17728;DHT22;8984;49.268;12.302;2024-02-23T05:41:03;8.00;99.90
17728;DHT22;8984;49.268;12.302;2024-02-23T05:43:50;7.90;99.90
17728;DHT22;8984;49.268;12.302;2024-02-23T05:46:25;7.90;99.90
17728;DHT22;8984;49.268;12.302;2024-02-23T05:49:08;7.90;99.90
17728;DHT22;8984;49.268;12.302;2024-02-23T05:51:42;8.00;99.90
17728;DHT22;8984;49.268;12.302;2024-02-23T05:54:14;8.00;99.90
17728;DHT22;8984;49.268;12.302;2024-02-23T05:57:05;7.90;99.90
17728;DHT22;8984;49.268;12.302;2024-02-23T05:59:33;7.90;99.90
17728;DHT22;8984;49.268;12.302;2024-02-23T06:02:04;7.90;99.90
17728;DHT22;8984;49.268;12.302;2024-02-23T06:04:36;7.80;99.90
17728;DHT22;8984;49.268;12.302;2024-02-23T06:07:04;7.80;99.90
17728;DHT22;8984;49.268;12.302;2024-02-23T06:09:35;7.80;99.90
17728;DHT22;8984;49.268;12.302;2024-02-23T06:12:07;7.90;99.90
17728;DHT22;8984;49.268;12.302;2024-02-23T06:14:37;7.90;99.90
17728;DHT22;8984;49.268;12.302;2024-02-23T06:17:10;8.00;99.90
17728;DHT22;8984;49.268;12.302;2024-02-23T06:19:40;7.90;99.90
17728;DHT22;8984;49.268;12.302;2024-02-23T06:22:35;7.90;99.90
17728;DHT22;8984;49.268;12.302;2024-02-23T06:25:24;7.90;99.90
17728;DHT22;8984;49.268;12.302;2024-02-23T06:27:56;8.00;99.90
17728;DHT22;8984;49.268;12.302;2024-02-23T06:30:39;8.00;99.90
17728;DHT22;8984;49.268;12.302;2024-02-23T06:33:10;8.00;99.90
17728;DHT22;8984;49.268;12.302;2024-02-23T06:35:48;7.90;99.90
17728;DHT22;8984;49.268;12.302;2024-02-23T06:38:25;8.00;99.90
17728;DHT22;8984;49.268;12.302;2024-02-23T06:41:15;8.10;99.90
17728;DHT22;8984;49.268;12.302;2024-02-23T06:43:56;8.00;99.90
17728;DHT22;8984;49.268;12.302;2024-02-23T06:46:25;7.80;99.90
17728;DHT22;8984;49.268;12.302;2024-02-23T06:48:57;7.70;99.90
17728;DHT22;8984;49.268;12.302;2024-02-23T06:51:25;7.90;99.90
17728;DHT22;8984;49.268;12.302;2024-02-23T06:53:53;7.70;99.90
17728;DHT22;8984;49.268;12.302;2024-02-23T06:56:43;7.80;99.90
17728;DHT22;8984;49.268;12.302;2024-02-23T06:59:28;7.80;99.90
17728;DHT22;8984;49.268;12.302;2024-02-23T07:02:02;7.70;99.90
17728;DHT22;8984;49.268;12.302;2024-02-23T07:04:44;7.70;99.90
17728;DHT22;8984;49.268;12.302;2024-02-23T07:07:22;7.60;99.90
17728;DHT22;8984;49.268;12.302;2024-02-23T07:09:54;7.70;99.90
17728;DHT22;8984;49.268;12.302;2024-02-23T07:12:31;7.60;99.90
17728;DHT22;8984;49.268;12.302;2024-02-23T07:15:03;7.60;99.90
17728;DHT22;8984;49.268;12.302;2024-02-23T07:17:37;7.70;99.90
17728;DHT22;8984;49.268;12.302;2024-02-23T07:20:30;7.70;99.90
17728;DHT22;8984;49.268;12.302;2024-02-23T07:23:04;7.90;99.90
17728;DHT22;8984;49.268;12.302;2024-02-23T07:25:33;7.90;99.90
17728;DHT22;8984;49.268;12.302;2024-02-23T07:28:09;7.90;99.90
17728;DHT22;8984;49.268;12.302;2024-02-23T07:30:38;7.80;99.90
17728;DHT22;8984;49.268;12.302;2024-02-23T07:33:16;7.90;99.90
17728;DHT22;8984;49.268;12.302;2024-02-23T07:35:45;8.00;99.90
17728;DHT22;8984;49.268;12.302;2024-02-23T07:38:15;8.00;99.90
17728;DHT22;8984;49.268;12.302;2024-02-23T07:40:44;8.00;99.90
17728;DHT22;8984;49.268;12.302;2024-02-23T07:43:22;8.00;99.90
17728;DHT22;8984;49.268;12.302;2024-02-23T07:45:56;8.10;99.90
17728;DHT22;8984;49.268;12.302;2024-02-23T07:48:35;8.20;99.90
17728;DHT22;8984;49.268;12.302;2024-02-23T07:51:15;8.20;99.90
17728;DHT22;8984;49.268;12.302;2024-02-23T07:53:59;8.20;99.90
17728;DHT22;8984;49.268;12.302;2024-02-23T07:56:27;8.20;99.90
17728;DHT22;8984;49.268;12.302;2024-02-23T08:01:59;8.20;99.90
17728;DHT22;8984;49.268;12.302;2024-02-23T08:04:31;8.10;99.90
17728;DHT22;8984;49.268;12.302;2024-02-23T08:07:05;8.10;99.90
17728;DHT22;8984;49.268;12.302;2024-02-23T08:09:34;8.20;99.90
17728;DHT22;8984;49.268;12.302;2024-02-23T08:12:01;8.20;99.90
17728;DHT22;8984;49.268;12.302;2024-02-23T08:14:31;8.30;99.90
17728;DHT22;8984;49.268;12.302;2024-02-23T08:17:12;8.30;99.90
17728;DHT22;8984;49.268;12.302;2024-02-23T08:19:41;8.40;99.90
17728;DHT22;8984;49.268;12.302;2024-02-23T08:22:11;8.40;99.90
17728;DHT22;8984;49.268;12.302;2024-02-23T08:24:45;8.50;99.90
17728;DHT22;8984;49.268;12.302;2024-02-23T08:27:15;8.40;99.90
17728;DHT22;8984;49.268;12.302;2024-02-23T08:29:47;8.40;99.90
17728;DHT22;8984;49.268;12.302;2024-02-23T08:32:36;8.40;99.90
17728;DHT22;8984;49.268;12.302;2024-02-23T08:35:08;8.60;99.90
17728;DHT22;8984;49.268;12.302;2024-02-23T08:37:42;8.50;99.90
17728;DHT22;8984;49.268;12.302;2024-02-23T08:40:22;8.50;99.90
17728;DHT22;8984;49.268;12.302;2024-02-23T08:42:57;8.60;99.90
17728;DHT22;8984;49.268;12.302;2024-02-23T08:45:30;8.50;99.90
17728;DHT22;8984;49.268;12.302;2024-02-23T08:48:19;8.50;99.90
17728;DHT22;8984;49.268;12.302;2024-02-23T08:50:50;8.60;99.90
17728;DHT22;8984;49.268;12.302;2024-02-23T08:53:18;8.50;99.90
17728;DHT22;8984;49.268;12.302;2024-02-23T08:55:46;8.60;99.90
17728;DHT22;8984;49.268;12.302;2024-02-23T08:58:17;8.70;99.90
17728;DHT22;8984;49.268;12.302;2024-02-23T09:00:46;8.70;99.90
17728;DHT22;8984;49.268;12.302;2024-02-23T09:03:13;8.70;99.90
17728;DHT22;8984;49.268;12.302;2024-02-23T09:05:44;8.80;99.90
17728;DHT22;8984;49.268;12.302;2024-02-23T09:08:15;8.90;99.90
17728;DHT22;8984;49.268;12.302;2024-02-23T09:10:43;8.80;99.90
17728;DHT22;8984;49.268;12.302;2024-02-23T09:13:26;8.80;99.90
17728;DHT22;8984;49.268;12.302;2024-02-23T09:16:04;9.00;99.90
17728;DHT22;8984;49.268;12.302;2024-02-23T09:18:37;9.10;99.90
17728;DHT22;8984;49.268;12.302;2024-02-23T09:21:22;9.20;99.90
17728;DHT22;8984;49.268;12.302;2024-02-23T09:24:21;9.20;99.90
17728;DHT22;8984;49.268;12.302;2024-02-23T09:26:59;9.10;99.90
17728;DHT22;8984;49.268;12.302;2024-02-23T09:29:28;9.10;99.90
17728;DHT22;8984;49.268;12.302;2024-02-23T09:32:15;8.90;99.90
17728;DHT22;8984;49.268;12.302;2024-02-23T09:34:43;9.10;99.90
17728;DHT22;8984;49.268;12.302;2024-02-23T09:37:23;9.10;99.90
17728;DHT22;8984;49.268;12.302;2024-02-23T09:40:14;9.20;99.90
17728;DHT22;8984;49.268;12.302;2024-02-23T09:42:43;9.00;99.90
17728;DHT22;8984;49.268;12.302;2024-02-23T09:45:22;9.10;99.90
17728;DHT22;8984;49.268;12.302;2024-02-23T09:47:56;8.90;99.90
17728;DHT22;8984;49.268;12.302;2024-02-23T09:50:44;9.10;99.90
17728;DHT22;8984;49.268;12.302;2024-02-23T09:53:26;9.00;99.90
17728;DHT22;8984;49.268;12.302;2024-02-23T09:55:55;9.20;99.90
17728;DHT22;8984;49.268;12.302;2024-02-23T09:58:28;9.10;99.90
17728;DHT22;8984;49.268;12.302;2024-02-23T10:01:02;9.10;99.90
17728;DHT22;8984;49.268;12.302;2024-02-23T10:03:35;9.20;99.90
17728;DHT22;8984;49.268;12.302;2024-02-23T10:06:29;9.20;99.90
17728;DHT22;8984;49.268;12.302;2024-02-23T10:09:12;9.20;99.90
17728;DHT22;8984;49.268;12.302;2024-02-23T10:11:41;9.20;99.90
17728;DHT22;8984;49.268;12.302;2024-02-23T10:14:10;9.00;99.90
17728;DHT22;8984;49.268;12.302;2024-02-23T10:16:49;9.10;99.90
17728;DHT22;8984;49.268;12.302;2024-02-23T10:19:20;9.00;99.90
17728;DHT22;8984;49.268;12.302;2024-02-23T10:22:12;9.00;99.90
17728;DHT22;8984;49.268;12.302;2024-02-23T10:24:58;8.90;99.90
17728;DHT22;8984;49.268;12.302;2024-02-23T10:27:34;8.90;99.90
17728;DHT22;8984;49.268;12.302;2024-02-23T10:30:06;9.00;99.90
17728;DHT22;8984;49.268;12.302;2024-02-23T10:32:42;9.00;99.90
17728;DHT22;8984;49.268;12.302;2024-02-23T10:35:16;9.10;99.90
17728;DHT22;8984;49.268;12.302;2024-02-23T10:37:50;9.00;99.90
17728;DHT22;8984;49.268;12.302;2024-02-23T10:40:24;8.90;99.90
17728;DHT22;8984;49.268;12.302;2024-02-23T10:43:17;9.00;99.90
17728;DHT22;8984;49.268;12.302;2024-02-23T10:45:57;9.10;99.90
17728;DHT22;8984;49.268;12.302;2024-02-23T10:48:43;9.10;99.90
17728;DHT22;8984;49.268;12.302;2024-02-23T10:51:18;9.20;99.90
17728;DHT22;8984;49.268;12.302;2024-02-23T10:53:53;9.10;99.90
17728;DHT22;8984;49.268;12.302;2024-02-23T10:56:55;9.20;99.90
17728;DHT22;8984;49.268;12.302;2024-02-23T10:59:49;9.30;99.90
17728;DHT22;8984;49.268;12.302;2024-02-23T11:02:20;9.20;99.90
17728;DHT22;8984;49.268;12.302;2024-02-23T11:05:36;9.20;99.90
17728;DHT22;8984;49.268;12.302;2024-02-23T11:09:23;9.20;99.90
17728;DHT22;8984;49.268;12.302;2024-02-23T11:12:33;9.30;99.90
17728;DHT22;8984;49.268;12.302;2024-02-23T11:15:31;9.40;99.90
17728;DHT22;8984;49.268;12.302;2024-02-23T11:25:19;9.50;99.90
17728;DHT22;8984;49.268;12.302;2024-02-23T11:41:24;9.70;99.90
17728;DHT22;8984;49.268;12.302;2024-02-23T11:43:51;9.80;99.90
17728;DHT22;8984;49.268;12.302;2024-02-23T11:46:18;9.80;99.90
17728;DHT22;8984;49.268;12.302;2024-02-23T11:48:45;9.80;99.90
17728;DHT22;8984;49.268;12.302;2024-02-23T11:51:13;9.90;99.90
17728;DHT22;8984;49.268;12.302;2024-02-23T11:53:44;9.90;99.90
17728;DHT22;8984;49.268;12.302;2024-02-23T11:56:11;10.00;99.90
17728;DHT22;8984;49.268;12.302;2024-02-23T11:58:39;10.00;99.90
17728;DHT22;8984;49.268;12.302;2024-02-23T12:01:06;10.00;99.90
17728;DHT22;8984;49.268;12.302;2024-02-23T12:03:33;10.00;99.90
17728;DHT22;8984;49.268;12.302;2024-02-23T12:06:01;9.90;99.90
17728;DHT22;8984;49.268;12.302;2024-02-23T12:08:30;9.90;99.90
17728;DHT22;8984;49.268;12.302;2024-02-23T12:11:05;9.90;99.90
17728;DHT22;8984;49.268;12.302;2024-02-23T12:13:34;9.90;99.90
17728;DHT22;8984;49.268;12.302;2024-02-23T12:16:02;10.00;99.90
17728;DHT22;8984;49.268;12.302;2024-02-23T12:18:36;10.10;99.90
17728;DHT22;8984;49.268;12.302;2024-02-23T12:21:10;9.90;99.90
17728;DHT22;8984;49.268;12.302;2024-02-23T12:23:44;9.90;99.90
17728;DHT22;8984;49.268;12.302;2024-02-23T12:26:23;10.00;99.90
17728;DHT22;8984;49.268;12.302;2024-02-23T12:28:50;10.00;99.90
17728;DHT22;8984;49.268;12.302;2024-02-23T12:31:24;10.10;99.90
17728;DHT22;8984;49.268;12.302;2024-02-23T12:34:07;10.10;99.90
17728;DHT22;8984;49.268;12.302;2024-02-23T12:36:41;9.90;99.90
17728;DHT22;8984;49.268;12.302;2024-02-23T12:39:10;10.10;99.90
17728;DHT22;8984;49.268;12.302;2024-02-23T12:41:44;10.10;99.90
17728;DHT22;8984;49.268;12.302;2024-02-23T12:44:27;10.20;99.90
17728;DHT22;8984;49.268;12.302;2024-02-23T12:47:04;10.20;99.90
17728;DHT22;8984;49.268;12.302;2024-02-23T12:49:32;10.20;99.90
17728;DHT22;8984;49.268;12.302;2024-02-23T12:52:19;10.20;99.90
17728;DHT22;8984;49.268;12.302;2024-02-23T12:54:56;10.30;99.90
17728;DHT22;8984;49.268;12.302;2024-02-23T12:57:38;10.30;99.90
17728;DHT22;8984;49.268;12.302;2024-02-23T13:00:07;10.30;99.90
17728;DHT22;8984;49.268;12.302;2024-02-23T13:02:42;10.30;99.90
17728;DHT22;8984;49.268;12.302;2024-02-23T13:05:17;10.30;99.90
17728;DHT22;8984;49.268;12.302;2024-02-23T13:07:49;10.30;99.90
17728;DHT22;8984;49.268;12.302;2024-02-23T13:10:25;10.40;99.90
17728;DHT22;8984;49.268;12.302;2024-02-23T13:13:07;10.40;99.90
17728;DHT22;8984;49.268;12.302;2024-02-23T13:15:35;10.30;99.90
17728;DHT22;8984;49.268;12.302;2024-02-23T13:18:10;10.20;99.90
17728;DHT22;8984;49.268;12.302;2024-02-23T13:20:52;10.10;99.90
17728;DHT22;8984;49.268;12.302;2024-02-23T13:23:31;10.00;99.90
17728;DHT22;8984;49.268;12.302;2024-02-23T13:25:58;10.00;99.90
17728;DHT22;8984;49.268;12.302;2024-02-23T13:28:35;10.10;99.90
17728;DHT22;8984;49.268;12.302;2024-02-23T13:31:05;10.00;99.90
17728;DHT22;8984;49.268;12.302;2024-02-23T13:33:40;9.90;99.90
17728;DHT22;8984;49.268;12.302;2024-02-23T13:36:15;10.00;99.90
17728;DHT22;8984;49.268;12.302;2024-02-23T13:38:47;9.80;99.90
17728;DHT22;8984;49.268;12.302;2024-02-23T13:41:19;9.80;99.90
17728;DHT22;8984;49.268;12.302;2024-02-23T13:43:52;9.90;99.90
17728;DHT22;8984;49.268;12.302;2024-02-23T13:46:22;10.10;99.90
17728;DHT22;8984;49.268;12.302;2024-02-23T13:49:02;10.00;99.90
17728;DHT22;8984;49.268;12.302;2024-02-23T13:51:34;10.00;99.90
17728;DHT22;8984;49.268;12.302;2024-02-23T13:54:01;10.00;99.90
17728;DHT22;8984;49.268;12.302;2024-02-23T13:56:30;10.10;99.90
17728;DHT22;8984;49.268;12.302;2024-02-23T13:59:05;10.00;99.90
17728;DHT22;8984;49.268;12.302;2024-02-23T14:01:37;10.00;99.90
17728;DHT22;8984;49.268;12.302;2024-02-23T14:04:07;9.90;99.90
17728;DHT22;8984;49.268;12.302;2024-02-23T14:06:37;10.10;99.90
17728;DHT22;8984;49.268;12.302;2024-02-23T14:09:09;10.00;99.90
17728;DHT22;8984;49.268;12.302;2024-02-23T14:11:38;10.00;99.90
17728;DHT22;8984;49.268;12.302;2024-02-23T14:14:19;10.20;99.90
17728;DHT22;8984;49.268;12.302;2024-02-23T14:16:57;10.10;99.90
17728;DHT22;8984;49.268;12.302;2024-02-23T14:19:55;10.10;99.90
17728;DHT22;8984;49.268;12.302;2024-02-23T14:22:22;10.00;99.90
17728;DHT22;8984;49.268;12.302;2024-02-23T14:24:50;10.00;99.90
17728;DHT22;8984;49.268;12.302;2024-02-23T14:27:17;10.00;99.90
17728;DHT22;8984;49.268;12.302;2024-02-23T14:29:44;9.80;99.90
17728;DHT22;8984;49.268;12.302;2024-02-23T14:32:15;9.80;99.90
17728;DHT22;8984;49.268;12.302;2024-02-23T14:34:42;9.70;99.90
17728;DHT22;8984;49.268;12.302;2024-02-23T14:37:11;9.70;99.90
17728;DHT22;8984;49.268;12.302;2024-02-23T14:39:38;9.80;99.90
17728;DHT22;8984;49.268;12.302;2024-02-23T14:42:05;9.70;99.90
17728;DHT22;8984;49.268;12.302;2024-02-23T14:44:34;9.70;99.90
17728;DHT22;8984;49.268;12.302;2024-02-23T14:47:01;9.70;99.90
17728;DHT22;8984;49.268;12.302;2024-02-23T14:49:28;9.70;99.90
17728;DHT22;8984;49.268;12.302;2024-02-23T14:51:55;9.80;99.90
17728;DHT22;8984;49.268;12.302;2024-02-23T14:54:24;9.80;99.90
17728;DHT22;8984;49.268;12.302;2024-02-23T14:56:51;9.60;99.90
17728;DHT22;8984;49.268;12.302;2024-02-23T14:59:20;9.80;99.90
17728;DHT22;8984;49.268;12.302;2024-02-23T15:01:49;9.80;99.90
17728;DHT22;8984;49.268;12.302;2024-02-23T15:04:21;9.80;99.90
17728;DHT22;8984;49.268;12.302;2024-02-23T15:06:52;10.00;99.90
17728;DHT22;8984;49.268;12.302;2024-02-23T15:09:28;9.80;99.90
17728;DHT22;8984;49.268;12.302;2024-02-23T15:12:03;9.80;99.90
17728;DHT22;8984;49.268;12.302;2024-02-23T15:14:31;9.70;99.90
17728;DHT22;8984;49.268;12.302;2024-02-23T15:17:00;9.80;99.90
17728;DHT22;8984;49.268;12.302;2024-02-23T15:19:51;9.60;99.90
17728;DHT22;8984;49.268;12.302;2024-02-23T15:22:31;9.50;99.90
17728;DHT22;8984;49.268;12.302;2024-02-23T15:25:11;9.40;99.90
17728;DHT22;8984;49.268;12.302;2024-02-23T15:28:00;9.30;99.90
17728;DHT22;8984;49.268;12.302;2024-02-23T15:30:30;9.40;99.90
17728;DHT22;8984;49.268;12.302;2024-02-23T15:33:05;9.20;99.90
17728;DHT22;8984;49.268;12.302;2024-02-23T15:35:37;9.30;99.90
17728;DHT22;8984;49.268;12.302;2024-02-23T15:38:22;9.30;99.90
17728;DHT22;8984;49.268;12.302;2024-02-23T15:40:57;9.30;99.90
17728;DHT22;8984;49.268;12.302;2024-02-23T15:43:34;9.30;99.90
17728;DHT22;8984;49.268;12.302;2024-02-23T15:46:15;9.30;99.90
17728;DHT22;8984;49.268;12.302;2024-02-23T15:48:52;9.40;99.90
17728;DHT22;8984;49.268;12.302;2024-02-23T15:51:29;9.40;99.90
17728;DHT22;8984;49.268;12.302;2024-02-23T15:54:03;9.50;99.90
17728;DHT22;8984;49.268;12.302;2024-02-23T15:56:33;9.50;99.90
17728;DHT22;8984;49.268;12.302;2024-02-23T15:59:04;9.50;99.90
17728;DHT22;8984;49.268;12.302;2024-02-23T16:01:38;9.50;99.90
17728;DHT22;8984;49.268;12.302;2024-02-23T16:04:08;9.50;99.90
17728;DHT22;8984;49.268;12.302;2024-02-23T16:06:37;9.40;99.90
17728;DHT22;8984;49.268;12.302;2024-02-23T16:09:30;9.40;99.90
17728;DHT22;8984;49.268;12.302;2024-02-23T16:12:05;9.40;99.90
17728;DHT22;8984;49.268;12.302;2024-02-23T16:14:36;9.30;99.90
17728;DHT22;8984;49.268;12.302;2024-02-23T16:17:06;9.40;99.90
17728;DHT22;8984;49.268;12.302;2024-02-23T16:19:34;9.50;99.90
17728;DHT22;8984;49.268;12.302;2024-02-23T16:22:03;9.40;99.90
17728;DHT22;8984;49.268;12.302;2024-02-23T16:24:31;9.40;99.90
17728;DHT22;8984;49.268;12.302;2024-02-23T16:27:12;9.40;99.90
17728;DHT22;8984;49.268;12.302;2024-02-23T16:29:40;9.40;99.90
17728;DHT22;8984;49.268;12.302;2024-02-23T16:32:09;9.30;99.90
17728;DHT22;8984;49.268;12.302;2024-02-23T16:34:39;9.20;99.90
17728;DHT22;8984;49.268;12.302;2024-02-23T16:37:20;9.00;99.90
17728;DHT22;8984;49.268;12.302;2024-02-23T16:39:51;9.00;99.90
17728;DHT22;8984;49.268;12.302;2024-02-23T16:42:28;9.00;99.90
17728;DHT22;8984;49.268;12.302;2024-02-23T16:45:09;9.00;99.90
17728;DHT22;8984;49.268;12.302;2024-02-23T16:47:38;9.00;99.90
17728;DHT22;8984;49.268;12.302;2024-02-23T16:50:09;9.00;99.90
17728;DHT22;8984;49.268;12.302;2024-02-23T16:52:39;8.80;99.90
17728;DHT22;8984;49.268;12.302;2024-02-23T16:55:11;8.90;99.90
17728;DHT22;8984;49.268;12.302;2024-02-23T16:57:57;8.90;99.90
17728;DHT22;8984;49.268;12.302;2024-02-23T17:00:26;8.90;99.90
17728;DHT22;8984;49.268;12.302;2024-02-23T17:02:55;8.90;99.90
17728;DHT22;8984;49.268;12.302;2024-02-23T17:05:23;8.80;99.90
17728;DHT22;8984;49.268;12.302;2024-02-23T17:07:51;8.80;99.90
17728;DHT22;8984;49.268;12.302;2024-02-23T17:10:21;8.90;99.90
17728;DHT22;8984;49.268;12.302;2024-02-23T17:12:52;8.80;99.90